createdAt,value
2023-04-27T00:02:10.843Z,99614.59
2023-04-27T00:06:13.652Z,99607.16
2023-04-27T00:10:15.145Z,99613.22
2023-04-27T00:14:16.544Z,99611.53
2023-04-27T00:18:18.008Z,99602.84
2023-04-27T00:22:20.825Z,99597.84
2023-04-27T00:26:22.241Z,99602.94
2023-04-27T00:30:23.708Z,99607.09
2023-04-27T00:34:25.172Z,99602.44
2023-04-27T00:38:28.621Z,99604.47
2023-04-27T00:42:30.220Z,99605.84
2023-04-27T00:46:32.689Z,99614.31
2023-04-27T00:50:34.665Z,99611.63
2023-04-27T00:54:38.808Z,99612.97
2023-04-27T00:58:40.240Z,99616.34
2023-04-27T01:02:42.347Z,99617.47
2023-04-27T01:06:44.059Z,99619.25
2023-04-27T01:10:46.801Z,99625.69
2023-04-27T01:14:48.328Z,99621.00
2023-04-27T01:18:49.718Z,99629.16
2023-04-27T01:22:51.120Z,99626.91
2023-04-27T01:26:53.867Z,99626.78
2023-04-27T01:30:55.321Z,99623.66
2023-04-27T01:34:57.361Z,99631.81
2023-04-27T01:38:58.782Z,99628.63
2023-04-27T01:43:01.522Z,99633.47
2023-04-27T01:47:02.940Z,99632.28
2023-04-27T01:51:04.494Z,99640.81
2023-04-27T01:55:07.079Z,99642.81
2023-04-27T01:59:09.818Z,99641.63
2023-04-27T02:03:11.456Z,99646.16
2023-04-27T02:07:13.014Z,99651.44
2023-04-27T02:11:14.470Z,99646.06
2023-04-27T02:15:17.369Z,99652.28
2023-04-27T02:19:18.774Z,99658.38
2023-04-27T02:23:20.179Z,99664.84
2023-04-27T02:27:21.585Z,99659.31
2023-04-27T02:31:25.101Z,99658.81
2023-04-27T02:35:26.571Z,99659.19
2023-04-27T02:39:27.965Z,99656.84
2023-04-27T02:43:29.443Z,99658.19
2023-04-27T02:47:32.215Z,99666.09
2023-04-27T02:51:34.272Z,99658.75
2023-04-27T02:55:35.693Z,99659.72
2023-04-27T02:59:37.073Z,99654.19
2023-04-27T03:03:40.026Z,99653.72
2023-04-27T03:07:41.570Z,99656.78
2023-04-27T03:11:42.976Z,99656.03
2023-04-27T03:15:44.384Z,99673.53
2023-04-27T03:19:48.310Z,99671.88
2023-04-27T03:23:49.851Z,99673.53
2023-04-27T03:27:51.255Z,99676.56
2023-04-27T03:31:52.669Z,99685.31
2023-04-27T03:35:58.761Z,99689.69
2023-04-27T03:40:00.169Z,99690.72
2023-04-27T03:44:01.608Z,99693.06
2023-04-27T03:48:03.177Z,99697.81
2023-04-27T03:52:06.067Z,99711.25
2023-04-27T03:56:07.568Z,99703.34
2023-04-27T04:00:09.976Z,99714.25
2023-04-27T04:04:11.541Z,99711.75
2023-04-27T04:08:14.516Z,99715.94
2023-04-27T04:12:15.915Z,99719.31
2023-04-27T04:16:17.411Z,99721.31
2023-04-27T04:20:18.839Z,99723.34
2023-04-27T04:24:21.597Z,99727.22
2023-04-27T04:28:23.120Z,99727.53
2023-04-27T04:32:24.671Z,99734.28
2023-04-27T04:36:26.096Z,99727.22
2023-04-27T04:40:29.262Z,99745.19
2023-04-27T04:44:30.665Z,99740.16
2023-04-27T04:48:32.064Z,99743.16
2023-04-27T04:52:33.468Z,99737.78
2023-04-27T04:56:36.213Z,99748.81
2023-04-27T05:00:37.620Z,99754.78
2023-04-27T05:04:39.148Z,99749.91
2023-04-27T05:08:40.559Z,99756.78
2023-04-27T05:12:43.297Z,99754.53
2023-04-27T05:16:44.795Z,99759.66
2023-04-27T05:20:46.489Z,99756.72
2023-04-27T05:24:47.907Z,99743.88
2023-04-27T05:28:51.106Z,99748.75
2023-04-27T05:32:52.546Z,99744.53
2023-04-27T05:36:54.009Z,99753.03
2023-04-27T05:40:55.754Z,99746.91
2023-04-27T05:44:58.510Z,99748.75
2023-04-27T05:49:00.324Z,99752.06
2023-04-27T05:53:01.752Z,99742.88
2023-04-27T05:57:03.493Z,99743.34
2023-04-27T06:01:06.369Z,99741.84
2023-04-27T06:05:08.630Z,99737.56
2023-04-27T06:09:10.114Z,99737.91
2023-04-27T06:13:11.614Z,99740.88
2023-04-27T06:17:14.357Z,99739.34
2023-04-27T06:21:16.145Z,99734.81
2023-04-27T06:25:17.755Z,99743.28
2023-04-27T06:29:19.183Z,99741.44
2023-04-27T06:33:21.943Z,99747.19
2023-04-27T06:37:23.600Z,99751.22
2023-04-27T06:41:26.263Z,99756.50
2023-04-27T06:45:28.046Z,99754.91
2023-04-27T06:49:31.003Z,99754.56
2023-04-27T06:53:32.588Z,99762.13
2023-04-27T06:57:34.198Z,99759.22
2023-04-27T07:01:36.330Z,99759.69
2023-04-27T07:05:39.168Z,99766.19
2023-04-27T07:09:40.609Z,99768.50
2023-04-27T07:13:42.040Z,99772.06
2023-04-27T07:17:43.504Z,99769.78
2023-04-27T07:21:46.584Z,99778.16
2023-04-27T07:25:48.015Z,99766.06
2023-04-27T07:29:49.499Z,99763.94
2023-04-27T07:33:51.017Z,99764.38
2023-04-27T07:37:53.921Z,99768.56
2023-04-27T07:41:55.397Z,99770.25
2023-04-27T07:45:56.957Z,99777.94
2023-04-27T07:49:58.427Z,99779.78
2023-04-27T07:54:01.424Z,99778.53
2023-04-27T07:58:05.062Z,99785.63
2023-04-27T08:02:17.525Z,99791.47
2023-04-27T08:06:19.834Z,99792.91
2023-04-27T08:10:23.536Z,99796.75
2023-04-27T08:14:25.098Z,99792.63
2023-04-27T08:18:26.666Z,99790.16
2023-04-27T08:22:28.136Z,99794.00
2023-04-27T08:26:30.979Z,99784.59
2023-04-27T08:30:32.800Z,99787.16
2023-04-27T08:34:34.313Z,99785.22
2023-04-27T08:38:35.816Z,99773.69
2023-04-27T08:42:40.328Z,99774.84
2023-04-27T08:46:41.932Z,99774.25
2023-04-27T08:50:44.843Z,99784.88
2023-04-27T08:54:46.255Z,99780.31
2023-04-27T08:58:49.430Z,99775.50
2023-04-27T09:02:51.105Z,99775.84
2023-04-27T09:06:52.632Z,99768.56
2023-04-27T09:10:54.044Z,99770.34
2023-04-27T09:15:01.569Z,99767.81
2023-04-27T09:19:03.009Z,99772.50
2023-04-27T09:23:04.455Z,99777.13
2023-04-27T09:27:07.124Z,99775.75
2023-04-27T09:31:09.918Z,99763.00
2023-04-27T09:35:21.496Z,99764.47
2023-04-27T09:39:23.000Z,99764.03
2023-04-27T09:43:24.562Z,99756.53
2023-04-27T09:47:27.448Z,99754.47
2023-04-27T09:51:29.037Z,99749.66
2023-04-27T09:55:36.260Z,99743.03
2023-04-27T09:59:54.178Z,99751.94
2023-04-27T10:04:13.124Z,99755.38
2023-04-27T10:08:15.166Z,99734.16
2023-04-27T10:12:18.755Z,99732.13
2023-04-27T10:16:21.310Z,99733.03
2023-04-27T10:20:30.868Z,99731.50
2023-04-27T10:24:34.881Z,99732.00
2023-04-27T10:28:38.331Z,99743.78
2023-04-27T10:32:50.264Z,99745.50
2023-04-27T10:37:05.463Z,99748.69
2023-04-27T10:41:14.228Z,99747.75
2023-04-27T10:45:28.508Z,99744.31
2023-04-27T10:49:31.842Z,99745.41
2023-04-27T10:53:37.969Z,99740.41
2023-04-27T10:57:46.242Z,99744.03
2023-04-27T11:01:48.849Z,99738.53
2023-04-27T11:05:59.701Z,99733.19
2023-04-27T11:10:03.659Z,99733.25
2023-04-27T11:14:05.122Z,99726.03
2023-04-27T11:18:07.059Z,99728.28
2023-04-27T11:22:08.507Z,99736.38
2023-04-27T11:26:12.376Z,99734.13
2023-04-27T11:30:21.300Z,99727.69
2023-04-27T11:34:24.109Z,99740.13
2023-04-27T11:38:26.114Z,99743.75
2023-04-27T11:42:29.098Z,99739.56
2023-04-27T11:46:30.817Z,99745.75
2023-04-27T11:50:32.307Z,99743.47
2023-04-27T11:54:33.746Z,99737.66
2023-04-27T11:58:38.070Z,99736.31
2023-04-27T12:02:40.067Z,99746.03
2023-04-27T12:06:41.558Z,99754.22
2023-04-27T12:10:43.028Z,99754.19
2023-04-27T12:14:45.927Z,99750.19
2023-04-27T12:18:47.642Z,99752.00
2023-04-27T12:22:49.037Z,99754.44
2023-04-27T12:26:50.541Z,99756.41
2023-04-27T12:30:53.345Z,99759.47
2023-04-27T12:34:54.754Z,99755.91
2023-04-27T12:38:58.931Z,99744.28
2023-04-27T12:43:01.338Z,99744.78
2023-04-27T12:47:04.268Z,99754.53
2023-04-27T12:51:06.103Z,99759.06
2023-04-27T12:55:15.210Z,99750.81
2023-04-27T12:59:22.963Z,99748.94
2023-04-27T13:03:25.926Z,99739.28
2023-04-27T13:07:27.425Z,99743.16
2023-04-27T13:11:28.999Z,99744.50
2023-04-27T13:15:30.413Z,99739.25
2023-04-27T13:19:33.222Z,99745.44
2023-04-27T13:23:34.658Z,99740.84
2023-04-27T13:27:36.145Z,99742.63
2023-04-27T13:31:37.744Z,99747.41
2023-04-27T13:35:40.569Z,99728.06
2023-04-27T13:39:41.983Z,99734.41
2023-04-27T13:43:43.388Z,99727.13
2023-04-27T13:47:44.816Z,99723.84
2023-04-27T13:51:47.564Z,99726.75
2023-04-27T13:55:48.975Z,99716.44
2023-04-27T13:59:50.373Z,99705.34
2023-04-27T14:03:51.969Z,99721.09
2023-04-27T14:07:54.805Z,99722.63
2023-04-27T14:11:57.389Z,99712.16
2023-04-27T14:15:58.917Z,99711.59
2023-04-27T14:20:00.318Z,99704.69
2023-04-27T14:24:03.334Z,99716.31
2023-04-27T14:28:05.980Z,99702.97
2023-04-27T14:32:07.366Z,99701.69
2023-04-27T14:36:09.307Z,99701.06
2023-04-27T14:40:13.614Z,99708.34
2023-04-27T14:44:15.014Z,99706.13
2023-04-27T14:48:16.460Z,99701.38
2023-04-27T14:52:17.933Z,99706.16
2023-04-27T14:56:21.063Z,99699.38
2023-04-27T15:00:22.615Z,99703.00
2023-04-27T15:04:24.142Z,99714.44
2023-04-27T15:08:25.728Z,99711.69
2023-04-27T15:12:28.473Z,99708.03
2023-04-27T15:16:30.114Z,99714.03
2023-04-27T15:20:31.617Z,99709.25
2023-04-27T15:24:33.021Z,99703.25
2023-04-27T15:28:35.884Z,99703.88
2023-04-27T15:32:37.317Z,99702.63
2023-04-27T15:36:38.737Z,99706.84
2023-04-27T15:40:40.461Z,99707.34
2023-04-27T15:44:43.218Z,99701.06
2023-04-27T15:48:44.651Z,99700.09
2023-04-27T15:52:46.105Z,99689.03
2023-04-27T15:56:47.517Z,99684.72
2023-04-27T16:00:50.391Z,99674.91
2023-04-27T16:04:54.869Z,99682.84
2023-04-27T16:08:56.281Z,99683.50
2023-04-27T16:12:57.807Z,99670.25
2023-04-27T16:17:03.393Z,99663.28
2023-04-27T16:21:04.928Z,99657.47
2023-04-27T16:25:06.754Z,99656.13
2023-04-27T16:29:08.366Z,99660.66
2023-04-27T16:33:11.255Z,99649.09
2023-04-27T16:37:12.958Z,99659.88
2023-04-27T16:41:14.348Z,99660.66
2023-04-27T16:45:15.907Z,99660.00
2023-04-27T16:49:18.750Z,99657.72
2023-04-27T16:53:20.238Z,99660.31
2023-04-27T16:57:21.739Z,99667.16
2023-04-27T17:01:24.249Z,99658.84
2023-04-27T17:05:27.102Z,99665.25
2023-04-27T17:09:28.509Z,99672.41
2023-04-27T17:13:29.915Z,99677.19
2023-04-27T17:17:31.683Z,99675.59
2023-04-27T17:21:34.454Z,99677.16
2023-04-27T17:25:35.891Z,99685.78
2023-04-27T17:29:37.324Z,99673.00
2023-04-27T17:33:38.759Z,99678.72
2023-04-27T17:37:41.506Z,99687.81
2023-04-27T17:41:42.954Z,99690.16
2023-04-27T17:45:44.390Z,99686.47
2023-04-27T17:49:45.820Z,99692.41
2023-04-27T17:53:48.587Z,99690.53
2023-04-27T17:57:50.140Z,99680.31
2023-04-27T18:01:51.597Z,99689.66
2023-04-27T18:05:53.076Z,99692.75
2023-04-27T18:09:55.853Z,99703.38
2023-04-27T18:13:57.275Z,99694.66
2023-04-27T18:17:58.728Z,99697.66
2023-04-27T18:22:00.254Z,99708.41
2023-04-27T18:26:03.172Z,99705.56
2023-04-27T18:30:05.770Z,99706.81
2023-04-27T18:34:07.226Z,99710.00
2023-04-27T18:38:08.700Z,99713.34
2023-04-27T18:42:11.430Z,99725.72
2023-04-27T18:46:12.851Z,99739.28
2023-04-27T18:50:14.275Z,99741.78
2023-04-27T18:54:15.681Z,99731.75
2023-04-27T18:58:18.468Z,99738.00
2023-04-27T19:02:19.919Z,99740.53
2023-04-27T19:06:21.613Z,99748.88
2023-04-27T19:10:23.085Z,99752.16
2023-04-27T19:14:25.872Z,99752.09
2023-04-27T19:18:27.304Z,99755.00
2023-04-27T19:22:29.055Z,99750.59
2023-04-27T19:26:30.888Z,99755.69
2023-04-27T19:30:33.805Z,99759.00
2023-04-27T19:34:35.383Z,99746.47
2023-04-27T19:38:36.888Z,99742.44
2023-04-27T19:42:38.319Z,99752.06
2023-04-27T19:46:41.131Z,99743.94
2023-04-27T19:50:43.360Z,99739.31
2023-04-27T19:54:44.775Z,99735.97
2023-04-27T19:58:46.222Z,99735.97
2023-04-27T20:02:49.728Z,99730.44
2023-04-27T20:06:51.310Z,99731.88
2023-04-27T20:10:52.736Z,99725.44
2023-04-27T20:14:54.141Z,99732.75
2023-04-27T20:18:56.895Z,99733.16
2023-04-27T20:22:58.313Z,99745.81
2023-04-27T20:26:59.797Z,99738.31
2023-04-27T20:31:01.305Z,99730.19
2023-04-27T20:35:04.460Z,99728.44
2023-04-27T20:39:05.928Z,99727.69
2023-04-27T20:43:07.468Z,99728.88
2023-04-27T20:47:08.883Z,99726.31
2023-04-27T20:51:11.857Z,99727.22
2023-04-27T20:55:13.403Z,99727.00
2023-04-27T20:59:14.821Z,99732.00
2023-04-27T21:03:16.339Z,99719.38
2023-04-27T21:07:19.194Z,99722.22
2023-04-27T21:11:20.626Z,99713.91
2023-04-27T21:15:22.305Z,99717.06
2023-04-27T21:19:23.730Z,99717.44
2023-04-27T21:23:26.589Z,99709.06
2023-04-27T21:27:28.155Z,99702.69
2023-04-27T21:31:29.591Z,99706.75
2023-04-27T21:35:31.383Z,99710.88
2023-04-27T21:39:34.130Z,99703.81
2023-04-27T21:43:35.619Z,99707.97
2023-04-27T21:47:37.148Z,99699.66
2023-04-27T21:51:38.612Z,99698.38
2023-04-27T21:55:41.576Z,99702.13
2023-04-27T21:59:43.040Z,99695.41
2023-04-27T22:03:44.600Z,99700.69
2023-04-27T22:07:46.248Z,99699.81
2023-04-27T22:11:48.995Z,99700.16
2023-04-27T22:15:50.428Z,99696.44
2023-04-27T22:19:51.860Z,99692.69
2023-04-27T22:23:53.268Z,99683.03
2023-04-27T22:27:55.993Z,99693.09
2023-04-27T22:31:57.825Z,99688.44
2023-04-27T22:35:59.679Z,99691.25
2023-04-27T22:40:01.127Z,99695.28
2023-04-27T22:44:03.979Z,99690.81
2023-04-27T22:48:05.671Z,99694.91
2023-04-27T22:52:07.133Z,99701.16
2023-04-27T22:56:08.553Z,99704.88
2023-04-27T23:00:12.242Z,99698.72
2023-04-27T23:04:13.856Z,99701.34
2023-04-27T23:08:15.577Z,99696.31
2023-04-27T23:12:16.970Z,99685.56
2023-04-27T23:16:19.708Z,99683.00
2023-04-27T23:20:28.105Z,99683.16
2023-04-27T23:24:30.543Z,99686.06
2023-04-27T23:28:31.943Z,99685.69
2023-04-27T23:32:35.087Z,99678.09
2023-04-27T23:36:36.508Z,99682.09
2023-04-27T23:40:37.906Z,99675.88
2023-04-27T23:44:39.297Z,99670.00
2023-04-27T23:48:42.020Z,99660.41
2023-04-27T23:52:43.417Z,99652.50
2023-04-27T23:56:44.835Z,99652.19
